Lummi Island, Washington
Current Conditions -  °F | °C
As of 1:53 PM on Friday 24 Oct 2014 (Local Time) from KBLI Reporting Station
Clear Clear  
Wind Chill: 56°   Ceiling: Unl
Heat Index: 56°   Visibility: 10mi
Dew Point: 44°   Wind: 14mph
Humidity: 64%   Direction: 20°NNE
Pressure: 30.01"   Gusts: NA
Location:  48.72°N, 122.68°W
Report Text: KBLI 242053Z 02012KT 10SM CLR 13/07 A3001 RMK AO2 SLP168 T01330067 58018
Loading
Personal Weather Stations






























Interactive Weather Map
Tropical Storm Tracking
New forecast layout! Learn more

10-Day Weather Forecast

Advertisements
Track Severe Weather on mobile